sensor_id;sensor_type;location;lat;lon;timestamp;P1;durP1;ratioP1;P2;durP2;ratioP2
48987;SDS011;34799;51.440;-2.534;2022-08-02T00:00:56;1.73;;;0.60;;
48987;SDS011;34799;51.440;-2.534;2022-08-02T00:03:23;2.72;;;0.50;;
48987;SDS011;34799;51.440;-2.534;2022-08-02T00:05:51;3.40;;;0.52;;
48987;SDS011;34799;51.440;-2.534;2022-08-02T00:08:20;4.78;;;0.55;;
48987;SDS011;34799;51.440;-2.534;2022-08-02T00:10:48;2.33;;;0.63;;
48987;SDS011;34799;51.440;-2.534;2022-08-02T00:13:15;1.48;;;0.80;;
48987;SDS011;34799;51.440;-2.534;2022-08-02T00:15:42;1.77;;;0.47;;
48987;SDS011;34799;51.440;-2.534;2022-08-02T00:18:09;1.85;;;0.50;;
48987;SDS011;34799;51.440;-2.534;2022-08-02T00:20:36;2.05;;;0.57;;
48987;SDS011;34799;51.440;-2.534;2022-08-02T00:23:04;3.22;;;0.70;;
48987;SDS011;34799;51.440;-2.534;2022-08-02T00:25:31;3.25;;;0.60;;
48987;SDS011;34799;51.440;-2.534;2022-08-02T00:27:58;0.90;;;0.57;;
48987;SDS011;34799;51.440;-2.534;2022-08-02T00:30:26;1.25;;;0.60;;
48987;SDS011;34799;51.440;-2.534;2022-08-02T00:32:53;2.08;;;0.60;;
48987;SDS011;34799;51.440;-2.534;2022-08-02T00:35:20;1.67;;;0.50;;
48987;SDS011;34799;51.440;-2.534;2022-08-02T00:37:48;1.85;;;0.70;;
48987;SDS011;34799;51.440;-2.534;2022-08-02T00:40:19;1.35;;;0.52;;
48987;SDS011;34799;51.440;-2.534;2022-08-02T00:42:59;2.05;;;0.60;;
48987;SDS011;34799;51.440;-2.534;2022-08-02T00:45:30;2.88;;;0.77;;
48987;SDS011;34799;51.440;-2.534;2022-08-02T00:47:57;4.20;;;0.70;;
48987;SDS011;34799;51.440;-2.534;2022-08-02T00:50:25;1.80;;;0.55;;
48987;SDS011;34799;51.440;-2.534;2022-08-02T00:52:53;3.35;;;1.02;;
48987;SDS011;34799;51.440;-2.534;2022-08-02T00:55:21;1.20;;;0.55;;
48987;SDS011;34799;51.440;-2.534;2022-08-02T00:57:48;1.50;;;0.52;;
48987;SDS011;34799;51.440;-2.534;2022-08-02T01:00:16;3.72;;;0.80;;
48987;SDS011;34799;51.440;-2.534;2022-08-02T01:02:44;2.88;;;0.88;;
48987;SDS011;34799;51.440;-2.534;2022-08-02T01:05:11;2.63;;;0.95;;
48987;SDS011;34799;51.440;-2.534;2022-08-02T01:07:38;2.55;;;0.70;;
48987;SDS011;34799;51.440;-2.534;2022-08-02T01:10:06;4.18;;;0.55;;
48987;SDS011;34799;51.440;-2.534;2022-08-02T01:12:34;5.63;;;0.73;;
48987;SDS011;34799;51.440;-2.534;2022-08-02T01:15:06;2.90;;;0.70;;
48987;SDS011;34799;51.440;-2.534;2022-08-02T01:20:14;3.00;;;0.80;;
48987;SDS011;34799;51.440;-2.534;2022-08-02T01:28:35;2.03;;;0.80;;
48987;SDS011;34799;51.440;-2.534;2022-08-02T01:34:01;1.50;;;0.88;;
48987;SDS011;34799;51.440;-2.534;2022-08-02T01:36:34;2.80;;;1.10;;
48987;SDS011;34799;51.440;-2.534;2022-08-02T01:39:04;4.55;;;1.20;;
48987;SDS011;34799;51.440;-2.534;2022-08-02T01:41:36;2.92;;;0.90;;
48987;SDS011;34799;51.440;-2.534;2022-08-02T01:44:04;1.55;;;0.60;;
48987;SDS011;34799;51.440;-2.534;2022-08-02T01:46:33;4.40;;;0.50;;
48987;SDS011;34799;51.440;-2.534;2022-08-02T01:49:03;1.20;;;0.60;;
48987;SDS011;34799;51.440;-2.534;2022-08-02T01:51:32;3.25;;;0.93;;
48987;SDS011;34799;51.440;-2.534;2022-08-02T01:54:21;7.35;;;0.95;;
48987;SDS011;34799;51.440;-2.534;2022-08-02T01:56:52;2.38;;;0.60;;
48987;SDS011;34799;51.440;-2.534;2022-08-02T01:59:22;1.25;;;0.90;;
48987;SDS011;34799;51.440;-2.534;2022-08-02T02:01:51;1.98;;;0.63;;
48987;SDS011;34799;51.440;-2.534;2022-08-02T02:04:22;2.08;;;0.60;;
48987;SDS011;34799;51.440;-2.534;2022-08-02T02:06:52;3.40;;;0.80;;
48987;SDS011;34799;51.440;-2.534;2022-08-02T02:09:21;2.45;;;0.60;;
48987;SDS011;34799;51.440;-2.534;2022-08-02T02:11:53;1.17;;;0.50;;
48987;SDS011;34799;51.440;-2.534;2022-08-02T02:14:24;2.47;;;0.90;;
48987;SDS011;34799;51.440;-2.534;2022-08-02T02:16:53;1.30;;;0.50;;
48987;SDS011;34799;51.440;-2.534;2022-08-02T02:19:22;5.47;;;0.70;;
48987;SDS011;34799;51.440;-2.534;2022-08-02T02:21:51;2.33;;;0.63;;
48987;SDS011;34799;51.440;-2.534;2022-08-02T02:24:18;4.13;;;0.70;;
48987;SDS011;34799;51.440;-2.534;2022-08-02T02:26:45;2.70;;;1.10;;
48987;SDS011;34799;51.440;-2.534;2022-08-02T02:29:14;1.90;;;0.60;;
48987;SDS011;34799;51.440;-2.534;2022-08-02T02:31:44;2.70;;;0.90;;
48987;SDS011;34799;51.440;-2.534;2022-08-02T02:34:18;3.67;;;0.70;;
48987;SDS011;34799;51.440;-2.534;2022-08-02T02:36:55;2.00;;;0.63;;
48987;SDS011;34799;51.440;-2.534;2022-08-02T02:39:24;2.25;;;0.98;;
48987;SDS011;34799;51.440;-2.534;2022-08-02T02:41:54;4.68;;;0.70;;
48987;SDS011;34799;51.440;-2.534;2022-08-02T02:44:24;3.05;;;0.60;;
48987;SDS011;34799;51.440;-2.534;2022-08-02T02:46:52;1.65;;;0.55;;
48987;SDS011;34799;51.440;-2.534;2022-08-02T02:49:21;2.20;;;0.55;;
48987;SDS011;34799;51.440;-2.534;2022-08-02T02:51:49;2.67;;;0.73;;
48987;SDS011;34799;51.440;-2.534;2022-08-02T02:54:20;5.53;;;1.05;;
48987;SDS011;34799;51.440;-2.534;2022-08-02T02:56:49;3.80;;;1.00;;
48987;SDS011;34799;51.440;-2.534;2022-08-02T02:59:17;3.58;;;1.23;;
48987;SDS011;34799;51.440;-2.534;2022-08-02T03:01:46;2.05;;;0.93;;
48987;SDS011;34799;51.440;-2.534;2022-08-02T03:04:13;1.83;;;0.90;;
48987;SDS011;34799;51.440;-2.534;2022-08-02T03:06:41;2.72;;;0.70;;
48987;SDS011;34799;51.440;-2.534;2022-08-02T03:09:08;2.00;;;0.70;;
48987;SDS011;34799;51.440;-2.534;2022-08-02T03:11:36;4.20;;;1.30;;
48987;SDS011;34799;51.440;-2.534;2022-08-02T03:14:06;2.67;;;0.70;;
48987;SDS011;34799;51.440;-2.534;2022-08-02T03:16:42;3.92;;;0.77;;
48987;SDS011;34799;51.440;-2.534;2022-08-02T03:19:09;5.30;;;1.13;;
48987;SDS011;34799;51.440;-2.534;2022-08-02T03:21:37;2.15;;;0.68;;
48987;SDS011;34799;51.440;-2.534;2022-08-02T03:24:05;3.17;;;0.82;;
48987;SDS011;34799;51.440;-2.534;2022-08-02T03:26:33;2.88;;;1.23;;
48987;SDS011;34799;51.440;-2.534;2022-08-02T03:29:00;3.92;;;0.90;;
48987;SDS011;34799;51.440;-2.534;2022-08-02T03:31:28;3.40;;;1.00;;
48987;SDS011;34799;51.440;-2.534;2022-08-02T03:33:55;3.85;;;1.00;;
48987;SDS011;34799;51.440;-2.534;2022-08-02T03:36:28;5.43;;;1.08;;
48987;SDS011;34799;51.440;-2.534;2022-08-02T03:38:59;6.05;;;2.65;;
48987;SDS011;34799;51.440;-2.534;2022-08-02T03:41:27;6.78;;;1.60;;
48987;SDS011;34799;51.440;-2.534;2022-08-02T03:43:55;7.97;;;1.85;;
48987;SDS011;34799;51.440;-2.534;2022-08-02T03:46:23;6.28;;;1.90;;
48987;SDS011;34799;51.440;-2.534;2022-08-02T03:48:51;4.63;;;2.00;;
48987;SDS011;34799;51.440;-2.534;2022-08-02T03:51:20;6.38;;;2.30;;
48987;SDS011;34799;51.440;-2.534;2022-08-02T03:53:48;7.10;;;1.95;;
48987;SDS011;34799;51.440;-2.534;2022-08-02T03:56:17;3.90;;;1.75;;
48987;SDS011;34799;51.440;-2.534;2022-08-02T03:58:44;6.25;;;1.50;;
48987;SDS011;34799;51.440;-2.534;2022-08-02T04:01:14;4.93;;;1.73;;
48987;SDS011;34799;51.440;-2.534;2022-08-02T04:03:41;4.35;;;1.10;;
48987;SDS011;34799;51.440;-2.534;2022-08-02T04:06:09;4.30;;;1.10;;
48987;SDS011;34799;51.440;-2.534;2022-08-02T04:08:36;5.22;;;0.98;;
48987;SDS011;34799;51.440;-2.534;2022-08-02T04:11:04;2.55;;;1.23;;
48987;SDS011;34799;51.440;-2.534;2022-08-02T04:16:19;2.55;;;0.80;;
48987;SDS011;34799;51.440;-2.534;2022-08-02T04:18:59;4.95;;;0.90;;
48987;SDS011;34799;51.440;-2.534;2022-08-02T04:21:33;5.32;;;0.85;;
48987;SDS011;34799;51.440;-2.534;2022-08-02T04:24:02;3.25;;;0.93;;
48987;SDS011;34799;51.440;-2.534;2022-08-02T04:26:32;8.40;;;1.08;;
48987;SDS011;34799;51.440;-2.534;2022-08-02T04:29:01;5.43;;;0.95;;
48987;SDS011;34799;51.440;-2.534;2022-08-02T04:31:30;8.80;;;1.35;;
48987;SDS011;34799;51.440;-2.534;2022-08-02T04:33:58;3.22;;;0.88;;
48987;SDS011;34799;51.440;-2.534;2022-08-02T04:36:26;6.50;;;1.10;;
48987;SDS011;34799;51.440;-2.534;2022-08-02T04:38:53;6.35;;;1.50;;
48987;SDS011;34799;51.440;-2.534;2022-08-02T04:41:21;2.47;;;0.88;;
48987;SDS011;34799;51.440;-2.534;2022-08-02T04:43:49;4.93;;;1.08;;
48987;SDS011;34799;51.440;-2.534;2022-08-02T04:46:18;5.38;;;0.90;;
48987;SDS011;34799;51.440;-2.534;2022-08-02T04:48:45;4.70;;;0.80;;
48987;SDS011;34799;51.440;-2.534;2022-08-02T04:51:12;3.42;;;1.02;;
48987;SDS011;34799;51.440;-2.534;2022-08-02T04:53:39;3.60;;;1.00;;
48987;SDS011;34799;51.440;-2.534;2022-08-02T04:56:07;5.28;;;0.82;;
48987;SDS011;34799;51.440;-2.534;2022-08-02T04:58:37;6.60;;;1.38;;
48987;SDS011;34799;51.440;-2.534;2022-08-02T05:01:05;4.28;;;1.33;;
48987;SDS011;34799;51.440;-2.534;2022-08-02T05:03:32;12.50;;;1.52;;
48987;SDS011;34799;51.440;-2.534;2022-08-02T05:06:00;6.15;;;1.02;;
48987;SDS011;34799;51.440;-2.534;2022-08-02T05:08:27;4.97;;;0.80;;
48987;SDS011;34799;51.440;-2.534;2022-08-02T05:10:54;7.13;;;0.85;;
48987;SDS011;34799;51.440;-2.534;2022-08-02T05:13:21;5.93;;;0.88;;
48987;SDS011;34799;51.440;-2.534;2022-08-02T05:15:48;5.13;;;0.95;;
48987;SDS011;34799;51.440;-2.534;2022-08-02T05:18:16;4.32;;;1.05;;
48987;SDS011;34799;51.440;-2.534;2022-08-02T05:20:45;5.65;;;0.70;;
48987;SDS011;34799;51.440;-2.534;2022-08-02T05:23:12;3.65;;;0.90;;
48987;SDS011;34799;51.440;-2.534;2022-08-02T05:25:39;6.82;;;0.85;;
48987;SDS011;34799;51.440;-2.534;2022-08-02T05:28:06;2.80;;;0.88;;
48987;SDS011;34799;51.440;-2.534;2022-08-02T05:30:36;3.75;;;1.15;;
48987;SDS011;34799;51.440;-2.534;2022-08-02T05:33:03;3.45;;;1.00;;
48987;SDS011;34799;51.440;-2.534;2022-08-02T05:35:31;3.47;;;0.60;;
48987;SDS011;34799;51.440;-2.534;2022-08-02T05:37:58;3.60;;;0.50;;
48987;SDS011;34799;51.440;-2.534;2022-08-02T05:40:26;5.43;;;1.00;;
48987;SDS011;34799;51.440;-2.534;2022-08-02T05:42:56;3.80;;;0.75;;
48987;SDS011;34799;51.440;-2.534;2022-08-02T05:45:23;3.45;;;0.75;;
48987;SDS011;34799;51.440;-2.534;2022-08-02T05:47:50;2.80;;;0.60;;
48987;SDS011;34799;51.440;-2.534;2022-08-02T05:50:17;4.78;;;0.80;;
48987;SDS011;34799;51.440;-2.534;2022-08-02T05:52:50;7.18;;;0.55;;
48987;SDS011;34799;51.440;-2.534;2022-08-02T05:55:33;3.83;;;0.70;;
48987;SDS011;34799;51.440;-2.534;2022-08-02T05:58:13;6.78;;;1.00;;
48987;SDS011;34799;51.440;-2.534;2022-08-02T06:00:49;2.63;;;0.38;;
48987;SDS011;34799;51.440;-2.534;2022-08-02T06:03:41;3.55;;;0.50;;
48987;SDS011;34799;51.440;-2.534;2022-08-02T06:06:19;4.28;;;0.65;;
48987;SDS011;34799;51.440;-2.534;2022-08-02T06:08:54;3.78;;;0.45;;
48987;SDS011;34799;51.440;-2.534;2022-08-02T06:11:29;4.15;;;0.50;;
48987;SDS011;34799;51.440;-2.534;2022-08-02T06:14:04;5.30;;;0.50;;
48987;SDS011;34799;51.440;-2.534;2022-08-02T06:16:33;3.88;;;0.60;;
48987;SDS011;34799;51.440;-2.534;2022-08-02T06:19:01;6.03;;;0.60;;
48987;SDS011;34799;51.440;-2.534;2022-08-02T06:21:29;2.92;;;0.35;;
48987;SDS011;34799;51.440;-2.534;2022-08-02T06:23:56;1.30;;;0.28;;
48987;SDS011;34799;51.440;-2.534;2022-08-02T06:26:25;3.55;;;0.43;;
48987;SDS011;34799;51.440;-2.534;2022-08-02T06:28:53;4.28;;;0.35;;
48987;SDS011;34799;51.440;-2.534;2022-08-02T06:31:22;3.35;;;0.35;;
48987;SDS011;34799;51.440;-2.534;2022-08-02T06:33:50;2.95;;;0.40;;
48987;SDS011;34799;51.440;-2.534;2022-08-02T06:38:50;3.45;;;0.30;;
48987;SDS011;34799;51.440;-2.534;2022-08-02T06:41:38;2.25;;;0.60;;
48987;SDS011;34799;51.440;-2.534;2022-08-02T06:44:19;1.30;;;0.45;;
48987;SDS011;34799;51.440;-2.534;2022-08-02T06:47:06;3.85;;;0.30;;
48987;SDS011;34799;51.440;-2.534;2022-08-02T06:49:34;3.22;;;0.32;;
48987;SDS011;34799;51.440;-2.534;2022-08-02T06:52:02;2.45;;;0.30;;
48987;SDS011;34799;51.440;-2.534;2022-08-02T06:54:29;5.40;;;0.50;;
48987;SDS011;34799;51.440;-2.534;2022-08-02T06:56:56;2.55;;;0.20;;
48987;SDS011;34799;51.440;-2.534;2022-08-02T06:59:24;5.65;;;0.32;;
48987;SDS011;34799;51.440;-2.534;2022-08-02T07:01:52;1.73;;;0.40;;
48987;SDS011;34799;51.440;-2.534;2022-08-02T07:04:19;2.17;;;0.25;;
48987;SDS011;34799;51.440;-2.534;2022-08-02T07:06:46;3.47;;;0.35;;
48987;SDS011;34799;51.440;-2.534;2022-08-02T07:09:13;4.72;;;0.40;;
48987;SDS011;34799;51.440;-2.534;2022-08-02T07:11:45;3.17;;;0.30;;
48987;SDS011;34799;51.440;-2.534;2022-08-02T07:14:12;2.97;;;0.47;;
48987;SDS011;34799;51.440;-2.534;2022-08-02T07:16:39;1.98;;;0.30;;
48987;SDS011;34799;51.440;-2.534;2022-08-02T07:19:06;2.53;;;0.30;;
48987;SDS011;34799;51.440;-2.534;2022-08-02T07:21:33;2.15;;;0.28;;
48987;SDS011;34799;51.440;-2.534;2022-08-02T07:24:00;1.80;;;0.30;;
48987;SDS011;34799;51.440;-2.534;2022-08-02T07:26:28;2.85;;;0.38;;
48987;SDS011;34799;51.440;-2.534;2022-08-02T07:28:55;2.00;;;0.28;;
48987;SDS011;34799;51.440;-2.534;2022-08-02T07:31:23;3.40;;;0.30;;
48987;SDS011;34799;51.440;-2.534;2022-08-02T07:33:50;3.05;;;0.40;;
48987;SDS011;34799;51.440;-2.534;2022-08-02T07:36:18;1.25;;;0.20;;
48987;SDS011;34799;51.440;-2.534;2022-08-02T07:38:45;3.30;;;0.50;;
48987;SDS011;34799;51.440;-2.534;2022-08-02T07:41:13;4.45;;;0.30;;
48987;SDS011;34799;51.440;-2.534;2022-08-02T07:43:40;1.17;;;0.30;;
48987;SDS011;34799;51.440;-2.534;2022-08-02T07:46:07;1.88;;;0.20;;
48987;SDS011;34799;51.440;-2.534;2022-08-02T07:48:34;2.28;;;0.47;;
48987;SDS011;34799;51.440;-2.534;2022-08-02T07:51:01;3.80;;;0.43;;
48987;SDS011;34799;51.440;-2.534;2022-08-02T07:53:28;2.42;;;0.43;;
48987;SDS011;34799;51.440;-2.534;2022-08-02T07:55:57;1.92;;;0.17;;
48987;SDS011;34799;51.440;-2.534;2022-08-02T07:58:24;0.90;;;0.30;;
48987;SDS011;34799;51.440;-2.534;2022-08-02T08:00:51;1.05;;;0.30;;
48987;SDS011;34799;51.440;-2.534;2022-08-02T08:03:18;2.00;;;0.65;;
48987;SDS011;34799;51.440;-2.534;2022-08-02T08:05:46;2.10;;;0.40;;
48987;SDS011;34799;51.440;-2.534;2022-08-02T08:08:13;3.13;;;0.50;;
48987;SDS011;34799;51.440;-2.534;2022-08-02T08:10:42;4.13;;;0.55;;
48987;SDS011;34799;51.440;-2.534;2022-08-02T08:13:10;3.88;;;0.32;;
48987;SDS011;34799;51.440;-2.534;2022-08-02T08:15:37;1.63;;;0.30;;
48987;SDS011;34799;51.440;-2.534;2022-08-02T08:18:04;3.80;;;0.45;;
48987;SDS011;34799;51.440;-2.534;2022-08-02T08:20:32;2.08;;;0.40;;
48987;SDS011;34799;51.440;-2.534;2022-08-02T08:23:00;1.42;;;0.60;;
48987;SDS011;34799;51.440;-2.534;2022-08-02T08:25:27;1.98;;;0.40;;
48987;SDS011;34799;51.440;-2.534;2022-08-02T08:27:55;5.43;;;0.38;;
48987;SDS011;34799;51.440;-2.534;2022-08-02T08:30:22;2.55;;;0.30;;
48987;SDS011;34799;51.440;-2.534;2022-08-02T08:32:50;1.63;;;0.32;;
48987;SDS011;34799;51.440;-2.534;2022-08-02T08:35:17;2.95;;;0.20;;
48987;SDS011;34799;51.440;-2.534;2022-08-02T08:37:45;3.10;;;0.30;;
48987;SDS011;34799;51.440;-2.534;2022-08-02T08:40:12;3.13;;;0.60;;
48987;SDS011;34799;51.440;-2.534;2022-08-02T08:42:40;2.22;;;0.20;;
48987;SDS011;34799;51.440;-2.534;2022-08-02T08:45:07;2.55;;;0.20;;
48987;SDS011;34799;51.440;-2.534;2022-08-02T08:47:36;2.88;;;0.30;;
48987;SDS011;34799;51.440;-2.534;2022-08-02T08:53:02;2.60;;;0.35;;
48987;SDS011;34799;51.440;-2.534;2022-08-02T08:55:32;4.03;;;0.20;;
48987;SDS011;34799;51.440;-2.534;2022-08-02T08:58:01;4.18;;;0.40;;
48987;SDS011;34799;51.440;-2.534;2022-08-02T09:00:31;3.17;;;0.85;;
48987;SDS011;34799;51.440;-2.534;2022-08-02T09:03:01;2.30;;;0.30;;
48987;SDS011;34799;51.440;-2.534;2022-08-02T09:05:30;4.35;;;1.50;;
48987;SDS011;34799;51.440;-2.534;2022-08-02T09:08:00;3.55;;;0.63;;
48987;SDS011;34799;51.440;-2.534;2022-08-02T09:10:48;3.60;;;0.22;;
48987;SDS011;34799;51.440;-2.534;2022-08-02T09:15:54;2.22;;;0.22;;
48987;SDS011;34799;51.440;-2.534;2022-08-02T09:18:36;3.90;;;0.30;;
48987;SDS011;34799;51.440;-2.534;2022-08-02T09:21:15;3.53;;;0.43;;
48987;SDS011;34799;51.440;-2.534;2022-08-02T09:23:45;4.55;;;0.60;;
48987;SDS011;34799;51.440;-2.534;2022-08-02T09:26:14;1.67;;;0.50;;
48987;SDS011;34799;51.440;-2.534;2022-08-02T09:28:45;4.63;;;0.30;;
48987;SDS011;34799;51.440;-2.534;2022-08-02T09:31:20;2.50;;;0.45;;
48987;SDS011;34799;51.440;-2.534;2022-08-02T09:33:50;4.80;;;0.20;;
48987;SDS011;34799;51.440;-2.534;2022-08-02T09:36:27;2.53;;;0.68;;
48987;SDS011;34799;51.440;-2.534;2022-08-02T09:39:09;3.38;;;0.40;;
48987;SDS011;34799;51.440;-2.534;2022-08-02T09:41:39;3.33;;;0.20;;
48987;SDS011;34799;51.440;-2.534;2022-08-02T09:44:09;4.90;;;0.20;;
48987;SDS011;34799;51.440;-2.534;2022-08-02T09:46:42;1.90;;;0.40;;
48987;SDS011;34799;51.440;-2.534;2022-08-02T09:49:11;3.58;;;0.25;;
48987;SDS011;34799;51.440;-2.534;2022-08-02T09:54:18;4.18;;;0.17;;
48987;SDS011;34799;51.440;-2.534;2022-08-02T09:56:50;1.73;;;0.20;;
48987;SDS011;34799;51.440;-2.534;2022-08-02T09:59:20;4.05;;;0.40;;
48987;SDS011;34799;51.440;-2.534;2022-08-02T10:01:51;0.98;;;0.25;;
48987;SDS011;34799;51.440;-2.534;2022-08-02T10:04:21;1.38;;;0.20;;
48987;SDS011;34799;51.440;-2.534;2022-08-02T10:06:53;2.25;;;0.30;;
48987;SDS011;34799;51.440;-2.534;2022-08-02T10:09:20;3.17;;;0.30;;
48987;SDS011;34799;51.440;-2.534;2022-08-02T10:11:48;1.67;;;0.30;;
48987;SDS011;34799;51.440;-2.534;2022-08-02T10:14:16;1.95;;;0.22;;
48987;SDS011;34799;51.440;-2.534;2022-08-02T10:16:45;3.50;;;1.23;;
48987;SDS011;34799;51.440;-2.534;2022-08-02T10:19:12;3.55;;;0.32;;
48987;SDS011;34799;51.440;-2.534;2022-08-02T10:21:43;1.83;;;0.10;;
48987;SDS011;34799;51.440;-2.534;2022-08-02T10:24:14;0.20;;;0.10;;
48987;SDS011;34799;51.440;-2.534;2022-08-02T10:26:44;1.20;;;0.10;;
48987;SDS011;34799;51.440;-2.534;2022-08-02T10:29:16;1.13;;;0.10;;
48987;SDS011;34799;51.440;-2.534;2022-08-02T10:31:50;1.98;;;0.20;;
48987;SDS011;34799;51.440;-2.534;2022-08-02T10:34:23;0.50;;;0.10;;
48987;SDS011;34799;51.440;-2.534;2022-08-02T10:36:56;0.35;;;0.10;;
48987;SDS011;34799;51.440;-2.534;2022-08-02T10:39:39;0.40;;;0.20;;
48987;SDS011;34799;51.440;-2.534;2022-08-02T10:42:07;2.00;;;0.10;;
48987;SDS011;34799;51.440;-2.534;2022-08-02T10:44:35;2.38;;;0.10;;
48987;SDS011;34799;51.440;-2.534;2022-08-02T10:49:52;0.73;;;0.10;;
48987;SDS011;34799;51.440;-2.534;2022-08-02T10:54:56;3.88;;;0.25;;
48987;SDS011;34799;51.440;-2.534;2022-08-02T10:57:27;3.50;;;0.22;;
48987;SDS011;34799;51.440;-2.534;2022-08-02T10:59:57;2.50;;;0.40;;
48987;SDS011;34799;51.440;-2.534;2022-08-02T11:02:45;3.17;;;0.55;;
48987;SDS011;34799;51.440;-2.534;2022-08-02T11:05:15;1.80;;;0.30;;
48987;SDS011;34799;51.440;-2.534;2022-08-02T11:07:46;6.30;;;0.52;;
48987;SDS011;34799;51.440;-2.534;2022-08-02T11:13:06;3.28;;;0.68;;
48987;SDS011;34799;51.440;-2.534;2022-08-02T11:18:23;3.45;;;0.80;;
48987;SDS011;34799;51.440;-2.534;2022-08-02T11:23:51;8.73;;;1.25;;
48987;SDS011;34799;51.440;-2.534;2022-08-02T11:28:55;6.65;;;0.60;;
48987;SDS011;34799;51.440;-2.534;2022-08-02T11:31:24;14.63;;;1.75;;
48987;SDS011;34799;51.440;-2.534;2022-08-02T11:33:51;6.10;;;1.02;;
48987;SDS011;34799;51.440;-2.534;2022-08-02T11:36:19;11.55;;;1.20;;
48987;SDS011;34799;51.440;-2.534;2022-08-02T11:38:46;7.93;;;1.35;;
48987;SDS011;34799;51.440;-2.534;2022-08-02T11:41:19;9.70;;;1.42;;
48987;SDS011;34799;51.440;-2.534;2022-08-02T11:43:53;9.45;;;1.60;;
48987;SDS011;34799;51.440;-2.534;2022-08-02T11:46:21;10.85;;;1.42;;
48987;SDS011;34799;51.440;-2.534;2022-08-02T11:48:48;7.75;;;0.95;;
48987;SDS011;34799;51.440;-2.534;2022-08-02T11:51:16;11.23;;;1.70;;
48987;SDS011;34799;51.440;-2.534;2022-08-02T11:53:45;10.45;;;1.42;;
48987;SDS011;34799;51.440;-2.534;2022-08-02T11:56:27;13.43;;;1.95;;
48987;SDS011;34799;51.440;-2.534;2022-08-02T12:01:33;10.00;;;1.75;;
48987;SDS011;34799;51.440;-2.534;2022-08-02T12:04:03;7.82;;;1.67;;
48987;SDS011;34799;51.440;-2.534;2022-08-02T12:06:32;11.10;;;1.20;;
48987;SDS011;34799;51.440;-2.534;2022-08-02T12:09:06;14.40;;;1.83;;
48987;SDS011;34799;51.440;-2.534;2022-08-02T12:11:35;9.02;;;1.50;;
48987;SDS011;34799;51.440;-2.534;2022-08-02T12:14:03;11.35;;;1.70;;
48987;SDS011;34799;51.440;-2.534;2022-08-02T12:16:35;11.32;;;1.73;;
48987;SDS011;34799;51.440;-2.534;2022-08-02T12:19:23;15.10;;;2.10;;
48987;SDS011;34799;51.440;-2.534;2022-08-02T12:24:51;11.13;;;2.28;;
48987;SDS011;34799;51.440;-2.534;2022-08-02T12:27:30;9.45;;;2.38;;
48987;SDS011;34799;51.440;-2.534;2022-08-02T12:30:03;10.57;;;1.92;;
48987;SDS011;34799;51.440;-2.534;2022-08-02T12:32:34;9.07;;;1.85;;
48987;SDS011;34799;51.440;-2.534;2022-08-02T12:35:06;11.50;;;1.60;;
48987;SDS011;34799;51.440;-2.534;2022-08-02T12:37:39;11.10;;;1.90;;
48987;SDS011;34799;51.440;-2.534;2022-08-02T12:40:21;12.65;;;2.10;;
48987;SDS011;34799;51.440;-2.534;2022-08-02T12:43:00;9.25;;;1.83;;
48987;SDS011;34799;51.440;-2.534;2022-08-02T12:45:30;8.80;;;1.80;;
48987;SDS011;34799;51.440;-2.534;2022-08-02T12:48:12;8.82;;;1.20;;
48987;SDS011;34799;51.440;-2.534;2022-08-02T12:50:40;7.32;;;1.58;;
48987;SDS011;34799;51.440;-2.534;2022-08-02T12:55:34;10.57;;;1.48;;
48987;SDS011;34799;51.440;-2.534;2022-08-02T12:58:06;9.25;;;1.27;;
48987;SDS011;34799;51.440;-2.534;2022-08-02T13:00:34;13.35;;;1.75;;
48987;SDS011;34799;51.440;-2.534;2022-08-02T13:03:03;11.65;;;1.17;;
48987;SDS011;34799;51.440;-2.534;2022-08-02T13:05:35;13.45;;;1.58;;
48987;SDS011;34799;51.440;-2.534;2022-08-02T13:08:02;5.85;;;1.20;;
48987;SDS011;34799;51.440;-2.534;2022-08-02T13:10:32;15.55;;;1.77;;
48987;SDS011;34799;51.440;-2.534;2022-08-02T13:12:59;8.98;;;1.02;;
48987;SDS011;34799;51.440;-2.534;2022-08-02T13:15:27;11.18;;;1.00;;
48987;SDS011;34799;51.440;-2.534;2022-08-02T13:17:55;10.73;;;1.73;;
48987;SDS011;34799;51.440;-2.534;2022-08-02T13:20:25;8.70;;;1.48;;
48987;SDS011;34799;51.440;-2.534;2022-08-02T13:22:55;12.98;;;1.67;;
48987;SDS011;34799;51.440;-2.534;2022-08-02T13:25:22;15.63;;;1.75;;
48987;SDS011;34799;51.440;-2.534;2022-08-02T13:27:51;14.20;;;1.67;;
48987;SDS011;34799;51.440;-2.534;2022-08-02T13:30:18;10.57;;;1.95;;
48987;SDS011;34799;51.440;-2.534;2022-08-02T13:32:45;10.80;;;1.40;;
48987;SDS011;34799;51.440;-2.534;2022-08-02T13:35:12;8.45;;;1.42;;
48987;SDS011;34799;51.440;-2.534;2022-08-02T13:37:40;15.85;;;1.70;;
48987;SDS011;34799;51.440;-2.534;2022-08-02T13:40:08;13.40;;;1.30;;
48987;SDS011;34799;51.440;-2.534;2022-08-02T13:42:46;14.45;;;1.33;;
48987;SDS011;34799;51.440;-2.534;2022-08-02T13:45:13;5.35;;;1.08;;
48987;SDS011;34799;51.440;-2.534;2022-08-02T13:47:41;9.75;;;1.70;;
48987;SDS011;34799;51.440;-2.534;2022-08-02T13:50:12;16.33;;;2.30;;
48987;SDS011;34799;51.440;-2.534;2022-08-02T13:52:39;9.35;;;1.17;;
48987;SDS011;34799;51.440;-2.534;2022-08-02T13:55:06;13.65;;;1.27;;
48987;SDS011;34799;51.440;-2.534;2022-08-02T13:57:34;9.85;;;1.95;;
48987;SDS011;34799;51.440;-2.534;2022-08-02T14:00:02;9.35;;;1.80;;
48987;SDS011;34799;51.440;-2.534;2022-08-02T14:02:30;12.50;;;2.15;;
48987;SDS011;34799;51.440;-2.534;2022-08-02T14:04:57;13.40;;;2.03;;
48987;SDS011;34799;51.440;-2.534;2022-08-02T14:07:24;13.45;;;2.03;;
48987;SDS011;34799;51.440;-2.534;2022-08-02T14:09:51;15.93;;;2.67;;
48987;SDS011;34799;51.440;-2.534;2022-08-02T14:12:22;9.48;;;1.10;;
48987;SDS011;34799;51.440;-2.534;2022-08-02T14:14:49;13.02;;;1.63;;
48987;SDS011;34799;51.440;-2.534;2022-08-02T14:17:16;11.77;;;1.48;;
48987;SDS011;34799;51.440;-2.534;2022-08-02T14:19:44;9.45;;;1.75;;
48987;SDS011;34799;51.440;-2.534;2022-08-02T14:22:13;14.95;;;2.42;;
48987;SDS011;34799;51.440;-2.534;2022-08-02T14:24:40;16.85;;;2.50;;
48987;SDS011;34799;51.440;-2.534;2022-08-02T14:27:07;13.00;;;1.45;;
48987;SDS011;34799;51.440;-2.534;2022-08-02T14:29:34;12.50;;;1.98;;
48987;SDS011;34799;51.440;-2.534;2022-08-02T14:32:01;9.48;;;1.83;;
48987;SDS011;34799;51.440;-2.534;2022-08-02T14:34:28;15.73;;;2.05;;
48987;SDS011;34799;51.440;-2.534;2022-08-02T14:36:55;13.93;;;2.10;;
48987;SDS011;34799;51.440;-2.534;2022-08-02T14:39:23;7.60;;;0.82;;
48987;SDS011;34799;51.440;-2.534;2022-08-02T14:41:50;10.43;;;1.50;;
48987;SDS011;34799;51.440;-2.534;2022-08-02T14:44:17;8.88;;;1.50;;
48987;SDS011;34799;51.440;-2.534;2022-08-02T14:46:44;6.28;;;0.80;;
48987;SDS011;34799;51.440;-2.534;2022-08-02T14:49:11;10.60;;;1.48;;
48987;SDS011;34799;51.440;-2.534;2022-08-02T14:51:38;8.93;;;1.92;;
48987;SDS011;34799;51.440;-2.534;2022-08-02T14:54:07;12.18;;;1.55;;
48987;SDS011;34799;51.440;-2.534;2022-08-02T14:56:35;12.88;;;1.50;;
48987;SDS011;34799;51.440;-2.534;2022-08-02T14:59:03;12.23;;;1.35;;
48987;SDS011;34799;51.440;-2.534;2022-08-02T15:01:32;13.02;;;1.45;;
48987;SDS011;34799;51.440;-2.534;2022-08-02T15:03:59;10.57;;;1.50;;
48987;SDS011;34799;51.440;-2.534;2022-08-02T15:06:26;11.32;;;1.40;;
48987;SDS011;34799;51.440;-2.534;2022-08-02T15:08:59;12.70;;;1.52;;
48987;SDS011;34799;51.440;-2.534;2022-08-02T15:11:26;9.18;;;1.75;;
48987;SDS011;34799;51.440;-2.534;2022-08-02T15:13:53;14.48;;;1.70;;
48987;SDS011;34799;51.440;-2.534;2022-08-02T15:16:20;14.30;;;2.15;;
48987;SDS011;34799;51.440;-2.534;2022-08-02T15:18:52;14.82;;;1.70;;
48987;SDS011;34799;51.440;-2.534;2022-08-02T15:21:19;12.80;;;1.38;;
48987;SDS011;34799;51.440;-2.534;2022-08-02T15:23:46;14.23;;;1.95;;
48987;SDS011;34799;51.440;-2.534;2022-08-02T15:26:13;9.35;;;1.58;;
48987;SDS011;34799;51.440;-2.534;2022-08-02T15:28:40;17.48;;;2.05;;
48987;SDS011;34799;51.440;-2.534;2022-08-02T15:31:07;11.60;;;1.45;;
48987;SDS011;34799;51.440;-2.534;2022-08-02T15:33:35;14.32;;;1.67;;
48987;SDS011;34799;51.440;-2.534;2022-08-02T15:36:02;14.30;;;1.52;;